Time;durP1;ratioP1;P1;durP2;ratioP2;P2;SDS_P1;SDS_P2;PMS_P1;PMS_P2;Temp;Humidity;BMP_temperature;BMP_pressure;BME280_temperature;BME280_humidity;BME280_pressure;Samples;Min_cycle;Max_cycle;Signal;HPM_P1;HPM_P2
2023/04/09 00:01:42;;;;;;;37.60;19.50;;;;;;;10.66;92.60;101369.46;106025;1256;74387;-90
2023/04/09 00:04:10;;;;;;;40.10;22.20;;;;;;;10.62;92.86;101364.27;109049;1256;62986;-88
2023/04/09 00:06:37;;;;;;;30.90;20.20;;;;;;;10.60;93.08;101363.66;109293;1256;60281;-88
2023/04/09 00:09:04;;;;;;;32.00;19.30;;;;;;;10.57;93.50;101360.80;108751;1255;73508;-87
2023/04/09 00:11:36;;;;;;;35.40;21.30;;;;;;;10.59;94.26;101362.64;109264;1255;63748;-88
2023/04/09 00:14:03;;;;;;;38.00;23.80;;;;;;;10.67;94.69;101362.09;108118;1256;73442;-86
2023/04/09 00:16:30;;;;;;;34.20;24.20;;;;;;;10.74;94.64;101358.09;107835;1256;60356;-88
2023/04/09 00:18:59;;;;;;;39.40;21.80;;;;;;;10.79;94.31;101358.02;106885;1256;60508;-88
2023/04/09 00:21:27;;;;;;;37.90;21.90;;;;;;;10.82;94.09;101362.42;106331;1257;73653;-89
2023/04/09 00:23:54;;;;;;;32.30;20.80;;;;;;;10.80;93.84;101362.84;106003;1256;64917;-87
2023/04/09 00:26:21;;;;;;;35.30;20.70;;;;;;;10.77;93.69;101361.42;106003;1256;72291;-88
2023/04/09 00:28:50;;;;;;;37.30;22.60;;;;;;;10.72;93.72;101361.98;105872;1256;62696;-87
2023/04/09 00:31:18;;;;;;;34.10;21.90;;;;;;;10.67;93.70;101362.95;105942;1260;60429;-87
2023/04/09 00:33:47;;;;;;;33.70;20.60;;;;;;;10.62;93.83;101362.85;105998;1262;72665;-87
2023/04/09 00:36:15;;;;;;;36.70;23.20;;;;;;;10.57;93.89;101364.33;106059;1256;64727;-86
2023/04/09 00:38:42;;;;;;;34.70;22.40;;;;;;;10.53;94.18;101364.66;107966;1256;72857;-86
2023/04/09 00:41:12;;;;;;;32.70;21.90;;;;;;;10.54;94.37;101359.05;107194;1256;61918;-86
2023/04/09 00:43:39;;;;;;;30.30;22.30;;;;;;;10.56;94.51;101363.11;106090;1256;60502;-88
2023/04/09 00:46:06;;;;;;;32.60;22.30;;;;;;;10.59;94.51;101361.41;105948;1256;73783;-88
2023/04/09 00:48:33;;;;;;;34.30;23.20;;;;;;;10.61;94.42;101362.55;106002;1256;64957;-86
2023/04/09 00:51:00;;;;;;;29.80;21.70;;;;;;;10.63;94.19;101360.34;105879;1261;73352;-89
2023/04/09 00:53:29;;;;;;;38.60;23.10;;;;;;;10.65;94.17;101355.38;105575;1256;62366;-88
2023/04/09 00:55:56;;;;;;;31.00;22.30;;;;;;;10.66;94.05;101359.52;105917;1257;61172;-88
2023/04/09 00:58:32;;;;;;;39.30;22.00;;;;;;;10.67;93.97;101355.62;105894;1255;75025;-88
2023/04/09 01:01:00;;;;;;;33.90;21.40;;;;;;;10.67;93.92;101352.98;105813;1256;64769;-88
2023/04/09 01:03:28;;;;;;;30.40;20.90;;;;;;;10.67;93.72;101357.02;105557;1256;73351;-89
2023/04/09 01:06:17;;;;;;;34.70;22.80;;;;;;;10.68;93.58;101359.80;105914;1260;62801;-87
2023/04/09 01:08:59;;;;;;;34.40;22.80;;;;;;;10.66;93.47;101362.84;105890;1256;61200;-88
2023/04/09 01:12:01;;;;;;;33.90;23.00;;;;;;;10.66;93.57;101359.53;105736;1261;74591;-84
2023/04/09 01:14:36;;;;;;;39.00;23.80;;;;;;;10.67;93.48;101355.63;105694;1259;64911;-86
2023/04/09 01:17:12;;;;;;;39.10;23.40;;;;;;;10.67;93.54;101361.58;106129;1256;72397;-85
2023/04/09 01:19:47;;;;;;;36.70;24.10;;;;;;;10.68;93.67;101362.39;106000;1256;61805;-86
2023/04/09 01:22:49;;;;;;;36.20;25.30;;;;;;;10.68;93.66;101356.78;105984;1255;60349;-87
2023/04/09 01:25:29;;;;;;;43.30;23.40;;;;;;;10.67;93.48;101358.94;106245;1256;73802;-88
2023/04/09 01:28:11;;;;;;;33.20;22.90;;;;;;;10.63;93.32;101361.41;105822;1256;64838;-89
2023/04/09 01:30:39;;;;;;;64.80;36.70;;;;;;;10.59;93.36;101361.27;105794;1259;73398;-89
2023/04/09 01:33:06;;;;;;;55.10;32.60;;;;;;;10.57;93.36;101357.31;107080;1255;62703;-86
2023/04/09 01:35:33;;;;;;;59.30;34.00;;;;;;;10.57;93.39;101356.42;108216;1256;60341;-86
2023/04/09 01:38:00;;;;;;;46.20;30.10;;;;;;;10.56;93.09;101356.80;105728;1256;75001;-87
2023/04/09 01:40:27;;;;;;;39.70;27.10;;;;;;;10.55;93.23;101361.45;105554;1256;64641;-89
2023/04/09 01:42:54;;;;;;;46.60;28.10;;;;;;;10.53;93.27;101356.11;105690;1255;74052;-87
2023/04/09 01:45:22;;;;;;;44.70;29.20;;;;;;;10.52;93.55;101358.77;106070;1256;62028;-87
2023/04/09 01:47:49;;;;;;;39.90;27.70;;;;;;;10.53;93.63;101364.36;106215;1263;60913;-86
2023/04/09 01:50:18;;;;;;;39.70;28.50;;;;;;;10.51;93.66;101364.75;106231;1259;73565;-88
2023/04/09 01:52:47;;;;;;;48.10;28.30;;;;;;;10.52;94.25;101359.82;105599;1256;64820;-88
2023/04/09 01:55:14;;;;;;;39.30;25.50;;;;;;;10.57;94.54;101361.34;105480;1257;72532;-85
2023/04/09 01:57:40;;;;;;;52.60;25.50;;;;;;;10.60;94.42;101363.67;105455;1261;60476;-87
2023/04/09 02:00:09;;;;;;;41.90;27.10;;;;;;;10.56;94.07;101357.36;105660;1256;60483;-89
2023/04/09 02:02:54;;;;;;;;;;;;;;;10.53;93.97;101361.54;105881;1256;74715;-86
2023/04/09 02:05:22;;;;;;;45.20;29.40;;;;;;;10.48;93.88;101358.47;105462;1262;63817;-87
2023/04/09 02:07:55;;;;;;;46.40;28.10;;;;;;;10.43;93.94;101361.65;105506;1258;71438;-85
2023/04/09 02:10:23;;;;;;;49.50;30.30;;;;;;;10.39;94.10;101362.73;105627;1256;63000;-87
2023/04/09 02:12:50;;;;;;;44.30;28.60;;;;;;;10.34;94.46;101361.70;105511;1256;61282;-88
2023/04/09 02:15:19;;;;;;;46.30;29.00;;;;;;;10.34;94.61;101361.02;105545;1263;74914;-87
2023/04/09 02:17:47;;;;;;;49.40;28.60;;;;;;;10.36;94.71;101357.29;105579;1256;65043;-88
2023/04/09 02:20:18;;;;;;;46.30;28.50;;;;;;;10.37;94.78;101354.05;105682;1261;73556;-89
2023/04/09 02:22:45;;;;;;;47.30;30.00;;;;;;;10.41;94.88;101355.13;105631;1259;63053;-89
2023/04/09 02:25:12;;;;;;;42.90;27.80;;;;;;;10.44;94.73;101358.30;106523;1256;61317;-91
2023/04/09 02:27:39;;;;;;;39.80;27.90;;;;;;;10.46;94.81;101354.20;105917;1256;73793;-87
2023/04/09 02:30:07;;;;;;;44.60;29.60;;;;;;;10.49;94.72;101352.13;106250;1257;65043;-86
2023/04/09 02:32:35;;;;;;;43.00;27.70;;;;;;;10.49;94.54;101352.98;106065;1256;73466;-86
2023/04/09 02:35:06;;;;;;;35.60;25.80;;;;;;;10.48;94.70;101356.02;106539;1256;62996;-84
2023/04/09 02:37:33;;;;;;;42.70;26.30;;;;;;;10.45;94.61;101360.16;106567;1256;61044;-85
2023/04/09 02:40:00;;;;;;;35.90;27.30;;;;;;;10.42;94.58;101361.91;106264;1256;73591;-84
2023/04/09 02:42:27;;;;;;;42.60;28.50;;;;;;;10.37;94.52;101363.87;106453;1256;63570;-84
2023/04/09 02:44:56;;;;;;;33.10;25.20;;;;;;;10.32;94.40;101356.77;106396;1256;72958;-85
2023/04/09 02:47:29;;;;;;;35.10;27.60;;;;;;;10.29;94.42;101360.05;106004;1259;61187;-86
2023/04/09 02:49:56;;;;;;;34.80;23.30;;;;;;;10.26;94.38;101365.75;106281;1256;60300;-87
2023/04/09 02:52:24;;;;;;;27.10;19.70;;;;;;;10.25;94.48;101367.56;105618;1258;74407;-88
2023/04/09 02:54:52;;;;;;;30.50;20.60;;;;;;;10.25;94.30;101373.31;105871;1256;64760;-87
2023/04/09 02:57:19;;;;;;;29.40;19.40;;;;;;;10.25;94.20;101373.67;105725;1256;74235;-88
2023/04/09 02:59:46;;;;;;;26.30;16.60;;;;;;;10.24;94.15;101375.98;105592;1263;61833;-87
2023/04/09 03:02:13;;;;;;;23.50;16.90;;;;;;;10.23;94.01;101377.08;105610;1256;61376;-88
2023/04/09 03:04:41;;;;;;;29.30;16.50;;;;;;;10.23;94.07;101377.97;105636;1256;74375;-88
2023/04/09 03:07:08;;;;;;;23.60;16.20;;;;;;;10.25;94.22;101378.20;105774;1256;64740;-89
2023/04/09 03:09:36;;;;;;;21.50;16.40;;;;;;;10.30;94.23;101377.83;105538;1256;73011;-87
2023/04/09 03:12:03;;;;;;;23.60;15.60;;;;;;;10.33;94.14;101381.69;105777;1256;61252;-86
2023/04/09 03:14:30;;;;;;;25.30;16.80;;;;;;;10.39;94.00;101386.70;105801;1256;60406;-83
2023/04/09 03:16:57;;;;;;;23.60;15.10;;;;;;;10.40;93.45;101388.21;107248;1255;74817;-86
2023/04/09 03:19:24;;;;;;;24.20;16.40;;;;;;;10.39;93.28;101390.20;109449;1256;63908;-87
2023/04/09 03:21:51;;;;;;;23.40;14.80;;;;;;;10.35;93.04;101394.69;108877;1256;71806;-87
2023/04/09 03:24:20;;;;;;;26.10;16.90;;;;;;;10.31;92.88;101396.85;108830;1256;62881;-87
2023/04/09 03:26:47;;;;;;;24.80;15.40;;;;;;;10.27;92.97;101399.77;107192;1256;60572;-88
2023/04/09 03:29:15;;;;;;;19.40;14.40;;;;;;;10.25;93.14;101400.23;105964;1262;75013;-87
2023/04/09 03:31:43;;;;;;;23.80;16.30;;;;;;;10.24;93.32;101403.44;106071;1259;64966;-89
2023/04/09 03:34:10;;;;;;;22.40;16.20;;;;;;;10.22;93.45;101400.88;105685;1262;73682;-88
2023/04/09 03:36:38;;;;;;;23.30;15.80;;;;;;;10.22;93.54;101401.95;105489;1256;63098;-89
2023/04/09 03:39:20;;;;;;;20.20;15.50;;;;;;;10.25;93.88;101404.26;105608;1256;60401;-88
2023/04/09 03:41:47;;;;;;;26.80;17.60;;;;;;;10.30;93.75;101403.71;105874;1256;74620;-84
2023/04/09 03:44:16;;;;;;;26.00;17.40;;;;;;;10.32;93.55;101409.01;108038;1256;64920;-83
2023/04/09 03:46:54;;;;;;;23.60;16.50;;;;;;;10.33;93.50;101407.03;107408;1256;72779;-88
2023/04/09 03:49:22;;;;;;;21.90;16.60;;;;;;;10.33;93.24;101406.00;105809;1263;62930;-86
2023/04/09 03:51:49;;;;;;;25.50;17.10;;;;;;;10.34;93.29;101409.24;105664;1256;61979;-87
2023/04/09 03:54:18;;;;;;;24.90;15.40;;;;;;;10.34;93.09;101407.34;105724;1255;74859;-88
2023/04/09 03:56:46;;;;;;;26.60;16.90;;;;;;;10.34;93.15;101409.96;105675;1257;64902;-88
2023/04/09 03:59:15;;;;;;;26.50;16.20;;;;;;;10.35;93.25;101410.12;105706;1258;73647;-86
2023/04/09 04:01:45;;;;;;;19.70;14.00;;;;;;;10.36;93.24;101415.81;105693;1257;62741;-87
2023/04/09 04:04:12;;;;;;;23.60;16.20;;;;;;;10.39;93.26;101413.77;105748;1256;60900;-85
2023/04/09 04:06:47;;;;;;;23.40;14.40;;;;;;;10.42;93.37;101417.48;106017;1259;75167;-86
2023/04/09 04:09:17;;;;;;;22.00;15.70;;;;;;;10.46;93.28;101421.14;105789;1259;64790;-86
2023/04/09 04:11:52;;;;;;;21.40;14.90;;;;;;;10.49;93.28;101420.82;105869;1256;72576;-87
2023/04/09 04:14:20;;;;;;;30.60;16.80;;;;;;;10.54;93.17;101421.83;105829;1262;62181;-87
2023/04/09 04:16:51;;;;;;;22.90;17.40;;;;;;;10.56;92.93;101423.45;105802;1256;60855;-89
2023/04/09 04:19:20;;;;;;;20.00;16.00;;;;;;;10.55;92.73;101424.73;105930;1259;75513;-85
2023/04/09 04:21:49;;;;;;;23.70;15.50;;;;;;;10.54;92.82;101425.33;106316;1255;63782;-85
2023/04/09 04:24:17;;;;;;;21.70;16.30;;;;;;;10.54;92.83;101427.38;105965;1256;73603;-88
2023/04/09 04:26:44;;;;;;;26.60;14.30;;;;;;;10.56;93.01;101425.37;105969;1256;61031;-86
2023/04/09 04:29:13;;;;;;;20.80;13.80;;;;;;;10.59;93.03;101426.11;105830;1261;60904;-87
2023/04/09 04:31:51;;;;;;;21.30;14.20;;;;;;;10.63;93.12;101432.60;105786;1255;74684;-86
2023/04/09 04:34:20;;;;;;;16.90;13.00;;;;;;;10.67;93.09;101435.73;106256;1259;64458;-87
2023/04/09 04:36:51;;;;;;;22.30;14.10;;;;;;;10.70;93.00;101434.54;105945;1258;73800;-86
2023/04/09 04:39:18;;;;;;;20.60;12.50;;;;;;;10.71;93.13;101428.38;105914;1260;63001;-86
2023/04/09 04:41:58;;;;;;;20.90;12.80;;;;;;;10.75;93.27;101431.29;106523;1256;61591;-87
2023/04/09 04:44:28;;;;;;;22.00;12.70;;;;;;;10.81;93.17;101431.20;106009;1260;73303;-85
2023/04/09 04:47:02;;;;;;;20.30;13.30;;;;;;;10.88;93.16;101431.38;105795;1260;65500;-88
2023/04/09 04:49:30;;;;;;;19.10;13.10;;;;;;;10.94;92.98;101435.98;106048;1256;72651;-85
2023/04/09 04:51:57;;;;;;;17.60;12.10;;;;;;;11.00;92.61;101434.30;105764;1256;62770;-86
2023/04/09 04:54:24;;;;;;;17.50;12.10;;;;;;;11.05;92.58;101438.08;106811;1256;60642;-88
2023/04/09 04:56:55;;;;;;;19.20;11.60;;;;;;;11.13;93.07;101439.81;106289;1256;73159;-88
2023/04/09 04:59:42;;;;;;;17.10;10.80;;;;;;;11.22;92.56;101442.88;105793;1260;539126;-87
2023/04/09 05:02:51;;;;;;;18.80;11.30;;;;;;;11.31;92.22;101443.42;102929;1294;599883;-86
2023/04/09 05:05:56;;;;;;;22.80;11.80;;;;;;;11.36;91.75;101450.73;105219;1270;59398;-87
2023/04/09 05:08:26;;;;;;;15.80;10.10;;;;;;;11.41;91.56;101450.13;105194;1271;60316;-87
2023/04/09 05:10:57;;;;;;;17.60;9.80;;;;;;;11.48;91.34;101457.34;105182;1267;73211;-87
2023/04/09 05:13:32;;;;;;;16.10;10.20;;;;;;;11.53;91.05;101459.33;105278;1264;64980;-87
2023/04/09 05:16:03;;;;;;;17.90;9.80;;;;;;;11.57;90.36;101463.49;104976;1266;651394;-87
2023/04/09 05:18:33;;;;;;;15.90;9.70;;;;;;;11.58;90.11;101466.10;105556;1264;62064;-85
2023/04/09 05:21:02;;;;;;;16.20;9.50;;;;;;;11.58;90.19;101462.58;105934;1265;60344;-88
2023/04/09 05:23:35;;;;;;;15.40;9.50;;;;;;;11.60;89.99;101469.67;107921;1260;72095;-85
2023/04/09 05:26:06;;;;;;;13.20;8.70;;;;;;;11.61;89.72;101472.08;107359;1265;63682;-86
2023/04/09 05:28:45;;;;;;;13.50;10.30;;;;;;;11.61;89.64;101470.50;106606;1266;73595;-85
2023/04/09 05:31:23;;;;;;;17.00;10.10;;;;;;;11.63;89.63;101475.11;106368;1265;61471;-86
2023/04/09 05:34:12;;;;;;;12.50;9.30;;;;;;;11.67;89.42;101476.31;106105;1257;61287;-89
2023/04/09 05:36:47;;;;;;;12.60;9.10;;;;;;;11.71;89.21;101478.95;106004;1260;72933;-86
2023/04/09 05:39:22;;;;;;;10.30;7.90;;;;;;;11.71;88.67;101478.42;105969;1260;64750;-87
2023/04/09 05:41:55;;;;;;;12.30;7.80;;;;;;;11.70;88.41;101476.16;106239;1260;72530;-88
2023/04/09 05:44:33;;;;;;;11.00;7.30;;;;;;;11.75;88.32;101482.20;106042;1257;60982;-85
2023/04/09 05:47:08;;;;;;;13.10;7.40;;;;;;;11.84;88.07;101487.36;106207;1257;61167;-87
2023/04/09 05:49:49;;;;;;;12.40;7.50;;;;;;;11.92;87.59;101483.48;106126;1259;73947;-87
2023/04/09 05:52:18;;;;;;;9.80;7.00;;;;;;;11.98;87.28;101488.77;105979;1256;64712;-87
2023/04/09 05:54:47;;;;;;;8.60;7.60;;;;;;;12.04;87.07;101491.28;106225;1257;72464;-88
2023/04/09 05:57:19;;;;;;;9.30;7.50;;;;;;;12.08;86.87;101490.36;106150;1257;59781;-85
2023/04/09 05:59:56;;;;;;;11.40;7.80;;;;;;;12.15;86.17;101498.27;106082;1258;61321;-88
2023/04/09 06:02:25;;;;;;;10.40;7.00;;;;;;;12.13;85.80;101497.65;106186;1259;72995;-86
2023/04/09 06:04:54;;;;;;;10.70;6.80;;;;;;;12.11;85.94;101498.83;106028;1257;63607;-88
2023/04/09 06:07:22;;;;;;;12.60;6.80;;;;;;;12.10;85.78;101507.64;105919;1256;72736;-86
2023/04/09 06:09:51;;;;;;;7.10;6.10;;;;;;;12.08;85.93;101506.34;106186;1260;61887;-86
2023/04/09 06:12:19;;;;;;;9.30;5.80;;;;;;;12.08;86.27;101506.84;106460;1257;60009;-86
2023/04/09 06:14:48;;;;;;;9.80;6.50;;;;;;;12.11;86.45;101514.90;106153;1257;73689;-87
2023/04/09 06:17:20;;;;;;;10.90;6.40;;;;;;;12.16;86.28;101512.20;106121;1260;63859;-88
2023/04/09 06:19:49;;;;;;;10.90;7.00;;;;;;;12.18;86.16;101515.27;106292;1257;72631;-88
2023/04/09 06:22:21;;;;;;;8.80;7.30;;;;;;;12.20;86.13;101519.16;106254;1259;60037;-89
2023/04/09 06:24:49;;;;;;;13.00;7.10;;;;;;;12.21;85.93;101518.92;106451;1257;61305;-89
2023/04/09 06:27:18;;;;;;;8.80;5.90;;;;;;;12.21;85.79;101523.86;106796;1260;72961;-89
2023/04/09 06:29:50;;;;;;;9.40;6.00;;;;;;;12.20;85.70;101526.73;107258;1257;64693;-90
2023/04/09 06:32:18;;;;;;;13.20;8.30;;;;;;;12.19;85.46;101525.22;109200;1259;72921;-88
2023/04/09 06:34:47;;;;;;;10.10;6.30;;;;;;;12.18;85.65;101525.41;108502;1257;61825;-90
2023/04/09 06:37:21;;;;;;;;;;;;;;;12.19;85.71;101529.23;107925;1256;60348;-89
2023/04/09 06:39:49;;;;;;;10.30;6.30;;;;;;;12.19;85.77;101528.36;107730;1256;73748;-88
2023/04/09 06:42:29;;;;;;;6.40;5.60;;;;;;;12.19;85.88;101532.39;106614;1261;64534;-88
2023/04/09 06:45:07;;;;;;;7.40;5.70;;;;;;;12.24;85.96;101533.90;106603;1254;72621;-88
2023/04/09 06:47:35;;;;;;;12.70;6.70;;;;;;;12.28;85.83;101536.82;107098;1254;60969;-87
2023/04/09 06:50:11;;;;;;;11.00;7.40;;;;;;;12.25;85.49;101532.99;108574;1254;59290;-85
2023/04/09 06:52:43;;;;;;;8.80;7.10;;;;;;;12.23;85.28;101539.54;108058;1254;74809;-88
2023/04/09 06:55:19;;;;;;;8.20;6.80;;;;;;;12.19;85.25;101540.63;106528;1260;64971;-89
2023/04/09 06:57:49;;;;;;;8.90;6.80;;;;;;;12.18;85.53;101551.71;106407;1255;73441;-89
2023/04/09 07:00:25;;;;;;;6.80;5.40;;;;;;;12.15;85.74;101547.67;106312;1259;63295;-88
2023/04/09 07:03:14;;;;;;;8.10;6.40;;;;;;;12.14;86.27;101551.61;106458;1254;61947;-88
2023/04/09 07:05:46;;;;;;;10.20;6.70;;;;;;;12.13;86.60;101552.17;106458;1254;74122;-90
2023/04/09 07:08:14;;;;;;;9.80;6.80;;;;;;;12.13;87.05;101549.16;106937;1254;63538;-88
2023/04/09 07:10:58;;;;;;;11.50;6.50;;;;;;;12.18;87.62;101551.90;109128;1254;72198;-88
2023/04/09 07:13:33;;;;;;;11.30;6.50;;;;;;;12.25;87.82;101553.64;108769;1254;63504;-86
2023/04/09 07:16:02;;;;;;;12.40;7.20;;;;;;;12.31;87.81;101558.97;107483;1254;60281;-89
2023/04/09 07:18:31;;;;;;;11.70;7.50;;;;;;;12.36;87.95;101558.00;106693;1257;73745;-89
2023/04/09 07:21:00;;;;;;;10.90;7.90;;;;;;;12.40;88.07;101557.73;106764;1254;65117;-89
2023/04/09 07:23:35;;;;;;;14.10;7.60;;;;;;;12.45;87.80;101561.73;106486;1254;72954;-88
2023/04/09 07:26:05;;;;;;;14.40;7.70;;;;;;;12.40;87.55;101561.10;106745;1254;63053;-88
2023/04/09 07:28:35;;;;;;;10.30;8.10;;;;;;;12.38;87.43;101563.31;106231;1254;61020;-90
2023/04/09 07:31:03;;;;;;;9.20;6.50;;;;;;;12.32;87.48;101564.70;106343;1260;72035;-88
2023/04/09 07:33:54;;;;;;;12.20;8.60;;;;;;;12.25;87.78;101563.46;106284;1260;65257;-91
2023/04/09 07:36:38;;;;;;;9.20;7.10;;;;;;;12.21;88.28;101559.62;105940;1260;73683;-90
2023/04/09 07:39:09;;;;;;;8.60;6.60;;;;;;;12.21;88.68;101561.05;106156;1254;62687;-86
2023/04/09 07:41:40;;;;;;;10.70;5.80;;;;;;;12.20;88.96;101562.66;106280;1258;60282;-90
2023/04/09 07:44:09;;;;;;;10.60;6.40;;;;;;;12.16;89.17;101556.23;106228;1259;73853;-90
2023/04/09 07:46:42;;;;;;;10.50;6.60;;;;;;;12.19;89.66;101559.73;106172;1255;64574;-90
2023/04/09 07:49:15;;;;;;;6.70;6.00;;;;;;;12.24;90.05;101558.41;106013;1261;72821;-89
2023/04/09 07:52:19;;;;;;;7.10;5.30;;;;;;;12.30;90.15;101563.75;106103;1262;60552;-87
2023/04/09 07:55:34;;;;;;;9.50;5.70;;;;;;;12.30;90.02;101563.55;105751;1265;60175;-89
2023/04/09 07:58:04;;;;;;;7.90;7.10;;;;;;;12.27;90.49;101566.00;105531;1263;73455;-87
2023/04/09 08:00:55;;;;;;;10.10;7.00;;;;;;;12.29;90.72;101567.45;105620;1261;64648;-89
2023/04/09 08:04:04;;;;;;;10.50;6.90;;;;;;;12.29;90.84;101566.77;105566;1258;71549;-88
2023/04/09 08:06:33;;;;;;;8.90;6.50;;;;;;;12.32;90.97;101568.89;105641;1262;62022;-88
2023/04/09 08:10:15;;;;;;;406.00;302.40;;;;;;;12.39;91.45;101568.52;105751;1257;59744;-89
2023/04/09 08:12:47;;;;;;;17.20;9.20;;;;;;;12.44;91.45;101567.02;105606;1257;74051;-88
2023/04/09 08:15:18;;;;;;;13.90;6.60;;;;;;;12.52;91.54;101564.69;105615;1256;64975;-89
2023/04/09 08:17:51;;;;;;;8.80;6.50;;;;;;;12.59;91.04;101566.08;105968;1256;73079;-85
2023/04/09 08:20:19;;;;;;;11.10;6.30;;;;;;;12.64;90.74;101564.37;106010;1255;61968;-87
2023/04/09 08:22:54;;;;;;;14.80;8.30;;;;;;;12.74;90.94;101564.20;106050;1257;61361;-90
2023/04/09 08:25:23;;;;;;;9.60;6.60;;;;;;;12.90;90.91;101564.73;105989;1252;73056;-88
2023/04/09 08:27:52;;;;;;;12.60;7.40;;;;;;;13.05;90.64;101560.44;106076;1258;64677;-87
2023/04/09 08:30:28;;;;;;;6.90;6.30;;;;;;;13.14;89.95;101557.09;106146;1256;71444;-89
2023/04/09 08:32:57;;;;;;;8.20;6.60;;;;;;;13.25;89.28;101560.00;106069;1257;61472;-88
2023/04/09 08:35:27;;;;;;;8.80;7.20;;;;;;;13.35;88.95;101557.94;106000;1254;60058;-89
2023/04/09 08:37:56;;;;;;;9.40;7.20;;;;;;;13.39;87.96;101558.58;106041;1252;73991;-89
2023/04/09 08:40:25;;;;;;;14.80;6.80;;;;;;;13.35;87.26;101557.89;106080;1254;65643;-92
2023/04/09 08:42:57;;;;;;;8.30;6.90;;;;;;;13.36;87.05;101556.64;106060;1254;73678;-89
2023/04/09 08:45:25;;;;;;;9.10;6.40;;;;;;;13.36;86.86;101556.44;106120;1256;61046;-89
2023/04/09 08:47:58;;;;;;;16.60;11.40;;;;;;;13.35;86.74;101560.36;106240;1256;60025;-88
2023/04/09 08:50:31;;;;;;;23.00;13.20;;;;;;;13.31;86.28;101560.94;106193;1253;74038;-88
2023/04/09 08:53:01;;;;;;;18.00;13.90;;;;;;;13.25;85.92;101557.90;106235;1254;63118;-89
2023/04/09 08:55:30;;;;;;;50.70;41.10;;;;;;;13.18;86.21;101561.41;106025;1254;73675;-87
2023/04/09 08:58:06;;;;;;;24.20;17.20;;;;;;;13.16;86.41;101561.56;106457;1257;61036;-88
2023/04/09 09:00:36;;;;;;;19.00;16.00;;;;;;;13.16;86.01;101566.63;106351;1253;61627;-89
2023/04/09 09:03:08;;;;;;;25.20;15.60;;;;;;;13.14;85.89;101567.11;106791;1251;72985;-88
2023/04/09 09:05:38;;;;;;;21.20;16.00;;;;;;;13.10;85.52;101564.55;106548;1255;63562;-89
2023/04/09 09:08:23;;;;;;;23.30;15.30;;;;;;;13.08;85.83;101566.08;106850;1251;74338;-89
2023/04/09 09:10:52;;;;;;;22.10;16.20;;;;;;;13.10;85.98;101561.58;106579;1251;60917;-89
2023/04/09 09:13:25;;;;;;;22.90;13.70;;;;;;;13.19;86.15;101563.15;106407;1251;61163;-90
2023/04/09 09:16:10;;;;;;;15.20;11.20;;;;;;;13.27;85.39;101564.62;107256;1255;74326;-87
2023/04/09 09:18:40;;;;;;;14.80;10.50;;;;;;;13.32;84.43;101562.82;106591;1251;63842;-88
2023/04/09 09:21:14;;;;;;;18.70;12.80;;;;;;;13.33;84.02;101565.05;106836;1255;73790;-89
2023/04/09 09:23:44;;;;;;;16.60;12.10;;;;;;;13.33;83.97;101566.30;107400;1251;61377;-88
2023/04/09 09:26:20;;;;;;;22.40;15.10;;;;;;;13.32;83.90;101561.78;107867;1251;60491;-89
2023/04/09 09:28:52;;;;;;;15.50;12.40;;;;;;;13.28;83.89;101565.81;106558;1251;73780;-84
2023/04/09 09:31:25;;;;;;;16.20;12.70;;;;;;;13.29;83.93;101570.70;106521;1251;63796;-88
2023/04/09 09:34:07;;;;;;;18.70;12.80;;;;;;;13.25;83.70;101571.76;106453;1256;73860;-87
2023/04/09 09:36:36;;;;;;;18.10;15.10;;;;;;;13.19;83.84;101573.89;106256;1251;62032;-88
2023/04/09 09:39:10;;;;;;;24.20;15.70;;;;;;;13.14;84.03;101576.42;106293;1253;61302;-86
2023/04/09 09:41:44;;;;;;;24.90;16.10;;;;;;;13.11;83.83;101579.08;106670;1257;74508;-90
2023/04/09 09:44:30;;;;;;;31.00;21.50;;;;;;;13.05;83.75;101577.80;109790;1250;64559;-89
2023/04/09 09:46:59;;;;;;;31.20;22.60;;;;;;;12.98;84.32;101577.84;109381;1251;71973;-90
2023/04/09 09:49:39;;;;;;;31.60;22.10;;;;;;;12.95;84.95;101581.30;108885;1251;60534;-87
2023/04/09 09:52:10;;;;;;;27.90;21.50;;;;;;;12.96;85.42;101581.65;109057;1250;60246;-83
2023/04/09 09:54:41;;;;;;;24.30;21.00;;;;;;;12.94;84.74;101585.75;107163;1256;73761;-87
2023/04/09 09:57:13;;;;;;;26.60;21.10;;;;;;;12.87;84.89;101582.10;107234;1251;64505;-89
2023/04/09 09:59:53;;;;;;;29.60;19.50;;;;;;;12.75;85.31;101581.16;106473;1258;73660;-87
2023/04/09 10:02:25;;;;;;;28.50;21.20;;;;;;;12.68;85.62;101587.19;106512;1251;61141;-90
2023/04/09 10:04:54;;;;;;;27.90;20.60;;;;;;;12.58;85.57;101587.15;106889;1256;60272;-87
2023/04/09 10:07:25;;;;;;;24.40;18.00;;;;;;;12.49;86.01;101585.20;106910;1251;74660;-85
2023/04/09 10:09:54;;;;;;;28.80;20.30;;;;;;;12.44;86.66;101587.35;106550;1251;64852;-88
2023/04/09 10:12:22;;;;;;;30.10;22.60;;;;;;;12.46;87.10;101586.09;106167;1251;73501;-89
2023/04/09 10:14:54;;;;;;;28.50;21.70;;;;;;;12.44;87.56;101588.77;106370;1251;61453;-89
2023/04/09 10:17:23;;;;;;;29.80;21.60;;;;;;;12.40;87.83;101593.36;106817;1251;60981;-90
2023/04/09 10:20:33;;;;;;;22.40;18.90;;;;;;;12.38;88.18;101592.80;106547;1256;74565;-89
2023/04/09 10:23:04;;;;;;;20.30;17.60;;;;;;;12.36;88.11;101593.91;105726;1257;63874;-88
2023/04/09 10:25:38;;;;;;;16.80;14.10;;;;;;;12.33;87.97;101595.66;105866;1262;73844;-90
2023/04/09 10:28:16;;;;;;;;;;;;;;;12.27;87.91;101597.54;105834;1257;62696;-87
2023/04/09 10:30:45;;;;;;;15.70;14.00;;;;;;;12.22;88.71;101602.89;105564;1257;60677;-88
2023/04/09 10:33:27;;;;;;;20.30;14.80;;;;;;;12.21;88.73;101595.58;105422;1257;74061;-87
2023/04/09 10:36:00;;;;;;;23.90;14.70;;;;;;;12.18;88.86;101596.95;105601;1257;63940;-85
2023/04/09 10:38:39;;;;;;;15.80;11.90;;;;;;;12.13;88.33;101596.66;106196;1260;72716;-88
2023/04/09 10:41:21;;;;;;;13.80;10.50;;;;;;;12.06;88.32;101598.25;105531;1260;61357;-88
2023/04/09 10:43:49;;;;;;;14.60;13.20;;;;;;;12.01;88.23;101599.57;105515;1257;61330;-87
2023/04/09 10:46:33;;;;;;;15.10;12.00;;;;;;;11.99;88.51;101599.14;105471;1260;74893;-86
2023/04/09 10:49:18;;;;;;;20.90;13.70;;;;;;;12.01;88.76;101596.40;105452;1260;64558;-85
2023/04/09 10:51:53;;;;;;;18.30;13.60;;;;;;;12.04;89.28;101598.00;105480;1261;73387;-87
2023/04/09 10:54:32;;;;;;;15.20;11.30;;;;;;;12.07;88.83;101598.60;105471;1258;62987;-89
2023/04/09 10:57:12;;;;;;;15.00;12.50;;;;;;;12.05;87.93;101598.67;105431;1257;61223;-83
2023/04/09 10:59:45;;;;;;;17.30;12.60;;;;;;;12.03;88.00;101597.36;105873;1251;75573;-85
2023/04/09 11:02:39;;;;;;;24.20;13.80;;;;;;;12.05;87.90;101599.89;105997;1256;64633;-87
2023/04/09 11:05:17;;;;;;;20.50;15.40;;;;;;;12.03;87.48;101598.92;106074;1255;71985;-88
2023/04/09 11:08:12;;;;;;;20.80;14.80;;;;;;;11.99;87.31;101598.77;106171;1256;61075;-88
2023/04/09 11:10:46;;;;;;;29.40;17.60;;;;;;;11.90;86.75;101599.57;106462;1251;61332;-87
2023/04/09 11:13:21;;;;;;;35.70;19.20;;;;;;;11.83;86.99;101602.18;106046;1256;73554;-86
2023/04/09 11:15:50;;;;;;;27.90;14.70;;;;;;;11.77;86.87;101598.44;106110;1256;64845;-87
2023/04/09 11:18:24;;;;;;;28.10;17.40;;;;;;;11.71;87.09;101595.93;106161;1251;73795;-85
2023/04/09 11:21:12;;;;;;;28.50;16.90;;;;;;;11.69;87.91;101595.52;106972;1251;63908;-86
2023/04/09 11:23:52;;;;;;;23.10;13.70;;;;;;;11.66;87.86;101593.03;107681;1251;61481;-86
2023/04/09 11:26:35;;;;;;;21.90;15.40;;;;;;;11.64;88.08;101591.02;106432;1257;72873;-89
2023/04/09 11:29:07;;;;;;;24.20;15.20;;;;;;;11.67;88.54;101584.79;105955;1256;64755;-89
2023/04/09 11:31:47;;;;;;;25.70;12.70;;;;;;;11.70;88.35;101587.05;106133;1251;73456;-89